Time;durP1;ratioP1;P1;durP2;ratioP2;P2;SDS_P1;SDS_P2;PMS_P1;PMS_P2;Temp;Humidity;BMP_temperature;BMP_pressure;BME280_temperature;BME280_humidity;BME280_pressure;Samples;Min_cycle;Max_cycle;Signal;HPM_P1;HPM_P2
2022/07/17 00:01:43;;;;;;;4.55;1.60;;;;;;;;;;5106952;28;20036;-72
2022/07/17 00:04:20;;;;;;;4.03;1.60;;;;;;;;;;5109723;27;20133;-72
2022/07/17 00:06:49;;;;;;;5.40;1.70;;;;;;;;;;5107985;28;20032;-72
2022/07/17 00:09:30;;;;;;;3.13;1.90;;;;;;;;;;5106506;27;20384;-71
2022/07/17 00:12:07;;;;;;;6.80;1.90;;;;;;;;;;5086182;27;20336;-72
2022/07/17 00:14:36;;;;;;;5.18;1.88;;;;;;;;;;5079341;28;20058;-72
2022/07/17 00:17:05;;;;;;;2.40;1.65;;;;;;;;;;5067855;28;20021;-72
2022/07/17 00:19:33;;;;;;;2.28;1.75;;;;;;;;;;5070084;28;20047;-72
2022/07/17 00:22:02;;;;;;;3.92;1.98;;;;;;;;;;5071685;28;20043;-72
2022/07/17 00:24:31;;;;;;;4.10;1.63;;;;;;;;;;5070228;28;20186;-72
2022/07/17 00:27:00;;;;;;;4.10;1.75;;;;;;;;;;5070521;28;20025;-72
2022/07/17 00:29:28;;;;;;;2.53;1.40;;;;;;;;;;5051958;28;20050;-72
2022/07/17 00:31:57;;;;;;;2.80;1.70;;;;;;;;;;5066548;28;20041;-72
2022/07/17 00:34:40;;;;;;;2.85;1.60;;;;;;;;;;5068038;28;20830;-72
2022/07/17 00:37:17;;;;;;;4.75;1.70;;;;;;;;;;4986717;28;20793;-72
2022/07/17 00:39:46;;;;;;;4.30;1.60;;;;;;;;;;4983438;28;20027;-71
2022/07/17 00:42:15;;;;;;;3.15;1.90;;;;;;;;;;4981870;28;20027;-72
2022/07/17 00:44:52;;;;;;;2.10;1.58;;;;;;;;;;5106463;27;20430;-72
2022/07/17 00:47:31;;;;;;;5.13;2.00;;;;;;;;;;5106531;27;20413;-72
2022/07/17 00:50:00;;;;;;;6.38;1.80;;;;;;;;;;5102251;28;20031;-72
2022/07/17 00:52:29;;;;;;;2.88;1.77;;;;;;;;;;5090849;28;20032;-73
2022/07/17 00:54:58;;;;;;;2.72;1.77;;;;;;;;;;5091513;28;20021;-72
2022/07/17 00:57:37;;;;;;;2.92;1.70;;;;;;;;;;5106096;27;20392;-72
2022/07/17 01:00:17;;;;;;;7.38;1.35;;;;;;;;;;5106417;27;20388;-72
2022/07/17 01:02:54;;;;;;;3.70;2.00;;;;;;;;;;5065950;28;20391;-71
2022/07/17 01:05:25;;;;;;;2.83;1.67;;;;;;;;;;5061823;28;20046;-72
2022/07/17 01:08:02;;;;;;;2.67;1.50;;;;;;;;;;5066446;28;20392;-72
2022/07/17 01:10:31;;;;;;;4.82;1.77;;;;;;;;;;5068311;28;20032;-72
2022/07/17 01:13:08;;;;;;;5.72;1.60;;;;;;;;;;5089461;27;20137;-72
2022/07/17 01:15:38;;;;;;;2.17;1.52;;;;;;;;;;5086051;28;20430;-72
2022/07/17 01:18:15;;;;;;;4.15;1.85;;;;;;;;;;5106349;27;20758;-72
2022/07/17 01:20:45;;;;;;;3.38;1.80;;;;;;;;;;5099243;28;20029;-73
2022/07/17 01:23:15;;;;;;;3.38;1.63;;;;;;;;;;5089166;28;20024;-72
2022/07/17 01:25:52;;;;;;;5.45;1.95;;;;;;;;;;5085939;27;21008;-72
2022/07/17 01:28:30;;;;;;;3.88;1.50;;;;;;;;;;5088223;27;20141;-72
2022/07/17 01:31:00;;;;;;;2.08;1.38;;;;;;;;;;5069312;28;20029;-72
2022/07/17 01:33:29;;;;;;;5.25;1.70;;;;;;;;;;5069860;28;20033;-72
2022/07/17 01:36:06;;;;;;;1.85;1.50;;;;;;;;;;5086110;27;20179;-72
2022/07/17 01:38:35;;;;;;;3.33;1.80;;;;;;;;;;5080181;28;20058;-72
2022/07/17 01:41:03;;;;;;;2.33;1.73;;;;;;;;;;5067347;28;20527;-72
2022/07/17 01:43:40;;;;;;;4.80;1.90;;;;;;;;;;5108141;27;20159;-72
2022/07/17 01:46:09;;;;;;;4.00;1.77;;;;;;;;;;5089592;28;20025;-72
2022/07/17 01:48:45;;;;;;;4.50;1.75;;;;;;;;;;5050325;27;20131;-72
2022/07/17 01:51:22;;;;;;;2.35;1.70;;;;;;;;;;5106605;27;20150;-72
2022/07/17 01:53:51;;;;;;;5.22;1.85;;;;;;;;;;5099717;28;20020;-72
2022/07/17 01:56:27;;;;;;;3.22;1.75;;;;;;;;;;5106095;27;20568;-72
2022/07/17 01:58:56;;;;;;;4.68;1.70;;;;;;;;;;5102035;28;20047;-72
2022/07/17 02:01:42;;;;;;;3.28;1.50;;;;;;;;;;5067298;28;20403;-72
2022/07/17 02:04:20;;;;;;;4.30;1.50;;;;;;;;;;5089337;28;20118;-72
2022/07/17 02:06:57;;;;;;;3.40;1.90;;;;;;;;;;5091982;27;20407;-72
2022/07/17 02:09:26;;;;;;;2.83;1.48;;;;;;;;;;5089979;28;20029;-72
2022/07/17 02:11:55;;;;;;;2.85;2.00;;;;;;;;;;5090278;28;20028;-72
2022/07/17 02:14:34;;;;;;;4.18;1.63;;;;;;;;;;5106556;27;20392;-72
2022/07/17 02:17:11;;;;;;;2.35;1.80;;;;;;;;;;5106608;27;20419;-72
2022/07/17 02:19:48;;;;;;;2.28;1.90;;;;;;;;;;5066617;28;20134;-72
2022/07/17 02:22:17;;;;;;;3.75;1.50;;;;;;;;;;5049482;28;20033;-72
2022/07/17 02:24:45;;;;;;;2.90;1.90;;;;;;;;;;5048340;28;20409;-73
2022/07/17 02:27:28;;;;;;;5.15;2.03;;;;;;;;;;5065988;28;20387;-71
2022/07/17 02:30:18;;;;;;;2.67;1.70;;;;;;;;;;5106365;27;20793;-72
2022/07/17 02:32:55;;;;;;;3.65;1.73;;;;;;;;;;5086250;27;20408;-72
2022/07/17 02:35:24;;;;;;;4.75;1.80;;;;;;;;;;5081848;28;20028;-72
2022/07/17 02:37:53;;;;;;;4.13;1.80;;;;;;;;;;5066061;28;20028;-71
2022/07/17 02:40:21;;;;;;;2.90;1.83;;;;;;;;;;5072768;28;20035;-71
2022/07/17 02:42:50;;;;;;;7.20;1.80;;;;;;;;;;5070610;28;20031;-71
2022/07/17 02:45:24;;;;;;;2.78;1.58;;;;;;;;;;5052297;28;20037;-71
2022/07/17 02:47:54;;;;;;;3.03;1.80;;;;;;;;;;5070038;28;20025;-71
2022/07/17 02:50:23;;;;;;;7.03;1.70;;;;;;;;;;5069827;28;20016;-72
2022/07/17 02:52:52;;;;;;;2.55;1.70;;;;;;;;;;5049646;28;20044;-72
2022/07/17 02:55:20;;;;;;;6.30;1.65;;;;;;;;;;5072843;28;20195;-72
2022/07/17 02:57:49;;;;;;;4.65;1.85;;;;;;;;;;5070327;28;20043;-71
2022/07/17 03:00:18;;;;;;;7.93;2.05;;;;;;;;;;5052217;28;20021;-72
2022/07/17 03:02:47;;;;;;;2.58;2.00;;;;;;;;;;5069946;28;20029;-72
2022/07/17 03:05:16;;;;;;;2.78;1.65;;;;;;;;;;5068649;28;20021;-72
2022/07/17 03:07:54;;;;;;;4.80;1.83;;;;;;;;;;5105976;27;20940;-72
2022/07/17 03:10:30;;;;;;;3.10;1.67;;;;;;;;;;5108764;27;20128;-72
2022/07/17 03:12:59;;;;;;;4.13;1.98;;;;;;;;;;5089468;28;20032;-72
2022/07/17 03:15:36;;;;;;;1.70;1.60;;;;;;;;;;5066033;28;20161;-72
2022/07/17 03:18:12;;;;;;;4.90;1.98;;;;;;;;;;5086059;27;20187;-72
2022/07/17 03:20:41;;;;;;;2.50;1.55;;;;;;;;;;5086015;28;20400;-72
2022/07/17 03:23:10;;;;;;;2.60;1.73;;;;;;;;;;5085700;28;20031;-71
2022/07/17 03:25:39;;;;;;;4.45;1.75;;;;;;;;;;5087686;28;20058;-72
2022/07/17 03:28:08;;;;;;;1.98;1.77;;;;;;;;;;5087953;28;20020;-72
2022/07/17 03:30:36;;;;;;;3.22;1.80;;;;;;;;;;5087268;28;20017;-72
2022/07/17 03:33:05;;;;;;;4.70;2.15;;;;;;;;;;5085880;28;20024;-72
2022/07/17 03:35:34;;;;;;;4.72;1.70;;;;;;;;;;5085783;28;20377;-71
2022/07/17 03:38:03;;;;;;;2.42;1.80;;;;;;;;;;5084208;28;20044;-72
2022/07/17 03:40:44;;;;;;;4.22;2.10;;;;;;;;;;5107550;27;20401;-70
2022/07/17 03:43:13;;;;;;;4.20;2.00;;;;;;;;;;5089343;28;20034;-71
2022/07/17 03:45:42;;;;;;;5.05;2.00;;;;;;;;;;5088683;28;20034;-72
2022/07/17 03:48:11;;;;;;;2.80;1.92;;;;;;;;;;5088485;28;20020;-72
2022/07/17 03:50:40;;;;;;;3.05;2.00;;;;;;;;;;5088512;28;20024;-72
2022/07/17 03:53:08;;;;;;;3.28;1.88;;;;;;;;;;5088579;28;20523;-72
2022/07/17 03:55:37;;;;;;;3.28;2.08;;;;;;;;;;5088187;28;20059;-72
2022/07/17 03:58:06;;;;;;;3.97;1.98;;;;;;;;;;5089136;28;20042;-72
2022/07/17 04:00:34;;;;;;;3.08;2.00;;;;;;;;;;5087132;28;20044;-72
2022/07/17 04:03:13;;;;;;;2.63;1.85;;;;;;;;;;5066095;28;20394;-71
2022/07/17 04:05:42;;;;;;;4.30;1.77;;;;;;;;;;5058999;28;20512;-72
2022/07/17 04:08:12;;;;;;;2.30;1.83;;;;;;;;;;5048414;28;20040;-72
2022/07/17 04:10:41;;;;;;;3.25;1.92;;;;;;;;;;5049118;28;20021;-72
2022/07/17 04:13:09;;;;;;;3.10;1.60;;;;;;;;;;5052357;28;20032;-72
2022/07/17 04:15:49;;;;;;;4.57;2.10;;;;;;;;;;5086768;27;20155;-72
2022/07/17 04:18:27;;;;;;;2.65;1.90;;;;;;;;;;5106115;27;20393;-72
2022/07/17 04:21:05;;;;;;;2.65;2.15;;;;;;;;;;5106229;27;20433;-71
2022/07/17 04:23:42;;;;;;;6.72;1.65;;;;;;;;;;5065989;28;20433;-72
2022/07/17 04:26:11;;;;;;;3.22;2.22;;;;;;;;;;5061732;28;20030;-72
2022/07/17 04:28:48;;;;;;;2.17;1.90;;;;;;;;;;5086882;27;20157;-72
2022/07/17 04:31:16;;;;;;;2.95;1.70;;;;;;;;;;5084995;28;20032;-72
2022/07/17 04:33:54;;;;;;;6.10;1.77;;;;;;;;;;5069660;27;20184;-72
2022/07/17 04:36:22;;;;;;;2.40;1.73;;;;;;;;;;5070378;28;20059;-72
2022/07/17 04:38:51;;;;;;;2.92;1.88;;;;;;;;;;5070028;28;20500;-72
2022/07/17 04:41:20;;;;;;;4.68;2.00;;;;;;;;;;5070081;28;20031;-72
2022/07/17 04:43:48;;;;;;;7.13;1.90;;;;;;;;;;5070218;28;22353;-72
2022/07/17 04:46:25;;;;;;;4.05;2.15;;;;;;;;;;5089011;27;20125;-72
2022/07/17 04:48:54;;;;;;;3.15;1.85;;;;;;;;;;5068790;28;20033;-72
2022/07/17 04:51:32;;;;;;;2.67;2.00;;;;;;;;;;5086299;28;20743;-72
2022/07/17 04:54:01;;;;;;;4.38;2.20;;;;;;;;;;5075943;28;20032;-72
2022/07/17 04:56:30;;;;;;;7.68;2.17;;;;;;;;;;5070212;28;20032;-72
2022/07/17 04:58:58;;;;;;;2.85;2.05;;;;;;;;;;5065481;28;20505;-73
2022/07/17 05:01:27;;;;;;;6.75;2.63;;;;;;;;;;5071717;28;20031;-73
2022/07/17 05:04:04;;;;;;;3.63;1.70;;;;;;;;;;5089383;27;20125;-72
2022/07/17 05:06:32;;;;;;;5.28;2.40;;;;;;;;;;5072656;28;20040;-73
2022/07/17 05:09:09;;;;;;;4.43;2.00;;;;;;;;;;5106180;27;20166;-72
2022/07/17 05:11:46;;;;;;;3.85;2.20;;;;;;;;;;5106359;27;20128;-72
2022/07/17 05:14:15;;;;;;;7.88;2.10;;;;;;;;;;5106522;28;20034;-72
2022/07/17 05:16:51;;;;;;;6.13;1.92;;;;;;;;;;5066305;28;20127;-72
2022/07/17 05:19:20;;;;;;;3.17;1.88;;;;;;;;;;5049026;28;20048;-72
2022/07/17 05:21:49;;;;;;;3.95;2.10;;;;;;;;;;5049019;28;20037;-72
2022/07/17 05:24:18;;;;;;;6.68;2.25;;;;;;;;;;5048734;28;20035;-71
2022/07/17 05:26:47;;;;;;;4.70;1.80;;;;;;;;;;5048525;28;20017;-72
2022/07/17 05:29:15;;;;;;;2.85;2.28;;;;;;;;;;5048592;28;20390;-72
2022/07/17 05:31:44;;;;;;;4.72;2.28;;;;;;;;;;5048604;28;20021;-72
2022/07/17 05:34:13;;;;;;;7.25;2.28;;;;;;;;;;5049193;28;20032;-72
2022/07/17 05:36:42;;;;;;;6.57;2.10;;;;;;;;;;5048314;28;20029;-72
2022/07/17 05:39:10;;;;;;;6.25;2.00;;;;;;;;;;5048239;28;20456;-72
2022/07/17 05:41:47;;;;;;;5.60;2.10;;;;;;;;;;5106100;27;20128;-72
2022/07/17 05:44:24;;;;;;;5.53;2.30;;;;;;;;;;5106508;27;20154;-72
2022/07/17 05:47:00;;;;;;;4.88;1.95;;;;;;;;;;5106097;27;20130;-71
2022/07/17 05:49:37;;;;;;;4.57;2.10;;;;;;;;;;5068257;28;20138;-72
2022/07/17 05:52:06;;;;;;;4.22;2.03;;;;;;;;;;5047585;28;20033;-72
2022/07/17 05:54:34;;;;;;;3.63;1.98;;;;;;;;;;5050083;28;20029;-72
2022/07/17 05:57:11;;;;;;;5.45;2.30;;;;;;;;;;5106359;27;20140;-72
2022/07/17 05:59:40;;;;;;;6.28;2.15;;;;;;;;;;5106268;28;20020;-72
2022/07/17 06:02:18;;;;;;;4.05;2.20;;;;;;;;;;5086033;27;20419;-71
2022/07/17 06:04:47;;;;;;;6.93;1.92;;;;;;;;;;5087608;28;20028;-72
2022/07/17 06:07:16;;;;;;;4.00;2.10;;;;;;;;;;5088277;28;20040;-72
2022/07/17 06:09:44;;;;;;;3.30;2.25;;;;;;;;;;5085834;28;20036;-72
2022/07/17 06:12:13;;;;;;;2.47;1.83;;;;;;;;;;5085814;28;20407;-72
2022/07/17 06:14:50;;;;;;;5.43;2.35;;;;;;;;;;5086293;27;20126;-72
2022/07/17 06:17:19;;;;;;;6.55;2.50;;;;;;;;;;5083197;28;20489;-72
2022/07/17 06:19:51;;;;;;;2.53;1.83;;;;;;;;;;5067251;28;20166;-72
2022/07/17 06:22:20;;;;;;;3.65;2.05;;;;;;;;;;5081211;28;20031;-72
2022/07/17 06:24:58;;;;;;;4.75;2.08;;;;;;;;;;5092363;27;20751;-72
2022/07/17 06:27:26;;;;;;;4.93;2.30;;;;;;;;;;5090241;28;20032;-71
2022/07/17 06:29:55;;;;;;;2.78;1.88;;;;;;;;;;5089966;28;20047;-72
2022/07/17 06:32:38;;;;;;;4.10;2.08;;;;;;;;;;5065998;28;20996;-72
2022/07/17 06:35:16;;;;;;;5.10;2.13;;;;;;;;;;5086382;28;20337;-72
2022/07/17 06:37:53;;;;;;;3.00;2.25;;;;;;;;;;5106454;27;20384;-72
2022/07/17 06:40:22;;;;;;;7.55;2.20;;;;;;;;;;5089418;28;20405;-72
2022/07/17 06:42:51;;;;;;;3.78;2.10;;;;;;;;;;5088607;28;20031;-71
2022/07/17 06:45:29;;;;;;;3.60;2.10;;;;;;;;;;5065414;28;20445;-72
2022/07/17 06:47:58;;;;;;;6.28;2.30;;;;;;;;;;5057068;28;20024;-72
2022/07/17 06:50:27;;;;;;;4.78;2.08;;;;;;;;;;5050161;28;20027;-72
2022/07/17 06:52:58;;;;;;;5.63;2.00;;;;;;;;;;5046672;28;20022;-72
2022/07/17 06:55:26;;;;;;;11.55;2.53;;;;;;;;;;5052152;28;20021;-72
2022/07/17 06:57:55;;;;;;;3.17;2.00;;;;;;;;;;5051418;28;20156;-72
2022/07/17 07:00:24;;;;;;;3.20;1.85;;;;;;;;;;5049792;28;20029;-71
2022/07/17 07:02:52;;;;;;;4.32;1.90;;;;;;;;;;5050002;28;20021;-72
2022/07/17 07:05:21;;;;;;;3.63;2.08;;;;;;;;;;5049551;28;20409;-72
2022/07/17 07:07:50;;;;;;;3.15;2.10;;;;;;;;;;5046114;28;20029;-72
2022/07/17 07:10:18;;;;;;;4.65;1.92;;;;;;;;;;5060311;28;20029;-72
2022/07/17 07:12:56;;;;;;;4.85;2.05;;;;;;;;;;5069249;28;20565;-72
2022/07/17 07:15:25;;;;;;;9.45;2.30;;;;;;;;;;5053319;28;20033;-72
2022/07/17 07:17:53;;;;;;;3.55;2.00;;;;;;;;;;5050611;28;20036;-73
2022/07/17 07:20:22;;;;;;;4.80;2.05;;;;;;;;;;5049942;28;20017;-72
2022/07/17 07:22:51;;;;;;;4.05;1.85;;;;;;;;;;5062213;28;20386;-73
2022/07/17 07:25:20;;;;;;;7.47;2.33;;;;;;;;;;5060668;28;20042;-72
2022/07/17 07:27:57;;;;;;;4.45;1.92;;;;;;;;;;5051844;28;20454;-72
2022/07/17 07:30:26;;;;;;;4.82;1.98;;;;;;;;;;5050060;28;20379;-72
2022/07/17 07:33:05;;;;;;;4.97;1.90;;;;;;;;;;5066056;28;20399;-72
2022/07/17 07:35:33;;;;;;;2.28;1.80;;;;;;;;;;5062065;28;20389;-73
2022/07/17 07:38:02;;;;;;;3.45;1.95;;;;;;;;;;5047182;28;20036;-72
2022/07/17 07:40:32;;;;;;;1.98;1.75;;;;;;;;;;5050922;28;20026;-72
2022/07/17 07:43:09;;;;;;;3.42;1.85;;;;;;;;;;5068728;28;20402;-72
2022/07/17 07:45:38;;;;;;;2.80;1.90;;;;;;;;;;5051693;28;20033;-72
2022/07/17 07:48:06;;;;;;;3.92;2.00;;;;;;;;;;5050290;28;20029;-72
2022/07/17 07:50:43;;;;;;;6.28;2.00;;;;;;;;;;5066031;28;20134;-72
2022/07/17 07:53:12;;;;;;;2.78;1.77;;;;;;;;;;5061724;28;20022;-71
2022/07/17 07:55:41;;;;;;;2.22;1.63;;;;;;;;;;5049291;28;20033;-72
2022/07/17 07:58:19;;;;;;;2.97;2.00;;;;;;;;;;5068729;28;20416;-72
2022/07/17 08:00:48;;;;;;;6.40;2.10;;;;;;;;;;5066036;28;20025;-72
2022/07/17 08:03:17;;;;;;;3.60;1.95;;;;;;;;;;5067354;28;20031;-72
2022/07/17 08:05:46;;;;;;;4.63;1.90;;;;;;;;;;5065861;28;20029;-73
2022/07/17 08:08:14;;;;;;;3.90;1.95;;;;;;;;;;5065914;28;20035;-73
2022/07/17 08:10:43;;;;;;;3.97;1.80;;;;;;;;;;5066089;28;20055;-73
2022/07/17 08:13:12;;;;;;;2.17;1.65;;;;;;;;;;5066605;28;20039;-72
2022/07/17 08:15:48;;;;;;;5.95;2.10;;;;;;;;;;5050339;28;20131;-73
2022/07/17 08:18:17;;;;;;;2.00;1.70;;;;;;;;;;5050067;28;20021;-72
2022/07/17 08:20:54;;;;;;;2.78;1.50;;;;;;;;;;5106396;27;20174;-72
2022/07/17 08:23:23;;;;;;;7.75;1.83;;;;;;;;;;5106493;28;20030;-72
2022/07/17 08:25:51;;;;;;;4.18;1.70;;;;;;;;;;5106285;28;20403;-73
2022/07/17 08:28:20;;;;;;;3.30;1.50;;;;;;;;;;5105409;28;20030;-72
2022/07/17 08:30:57;;;;;;;5.07;1.90;;;;;;;;;;5052231;28;20697;-72
2022/07/17 08:33:26;;;;;;;4.30;1.80;;;;;;;;;;5050230;28;20525;-72
2022/07/17 08:35:54;;;;;;;2.55;1.80;;;;;;;;;;5050040;28;20508;-72
2022/07/17 08:38:23;;;;;;;4.20;2.28;;;;;;;;;;5049896;28;20405;-72
2022/07/17 08:41:00;;;;;;;2.92;1.90;;;;;;;;;;5107584;27;20155;-72
2022/07/17 08:43:29;;;;;;;2.38;1.80;;;;;;;;;;5109015;28;20036;-72
2022/07/17 08:46:13;;;;;;;4.88;1.85;;;;;;;;;;5069128;28;20436;-73
2022/07/17 08:48:53;;;;;;;3.28;1.50;;;;;;;;;;5049474;28;20396;-72
2022/07/17 08:51:30;;;;;;;3.17;1.75;;;;;;;;;;5065963;28;20440;-73
2022/07/17 08:53:59;;;;;;;5.85;1.90;;;;;;;;;;5057354;28;20022;-73
2022/07/17 08:56:28;;;;;;;4.75;1.90;;;;;;;;;;5049979;28;20033;-71
2022/07/17 08:59:05;;;;;;;4.38;1.95;;;;;;;;;;5106471;27;20386;-72
2022/07/17 09:01:34;;;;;;;3.53;1.80;;;;;;;;;;5108803;28;20028;-72
2022/07/17 09:04:11;;;;;;;4.75;1.70;;;;;;;;;;5069393;28;20138;-73
2022/07/17 09:06:40;;;;;;;4.30;1.60;;;;;;;;;;5051764;28;20041;-72
2022/07/17 09:09:16;;;;;;;2.92;1.90;;;;;;;;;;5106195;27;20155;-72
2022/07/17 09:11:54;;;;;;;3.05;1.90;;;;;;;;;;5106468;27;20129;-72
2022/07/17 09:14:39;;;;;;;6.78;1.85;;;;;;;;;;5106602;27;20429;-72
2022/07/17 09:17:09;;;;;;;3.13;1.70;;;;;;;;;;5106771;28;20032;-71
2022/07/17 09:19:52;;;;;;;3.33;1.88;;;;;;;;;;5106704;27;20418;-73
2022/07/17 09:22:30;;;;;;;4.63;1.70;;;;;;;;;;5088885;27;20328;-70
2022/07/17 09:24:59;;;;;;;4.32;2.10;;;;;;;;;;5068899;28;20059;-70
2022/07/17 09:27:27;;;;;;;4.47;1.80;;;;;;;;;;5068994;28;20033;-71
2022/07/17 09:29:58;;;;;;;2.85;1.70;;;;;;;;;;5069318;28;20027;-71
2022/07/17 09:32:26;;;;;;;;;;;;;;;;;;5068914;28;20408;-69
2022/07/17 09:34:56;;;;;;;5.68;2.05;;;;;;;;;;5069091;28;19908;-69
2022/07/17 09:37:36;;;;;;;3.45;1.88;;;;;;;;;;5089066;27;20423;-71
2022/07/17 09:43:10;;;;;;;4.40;1.70;;;;;;;;;;5069643;28;20923;-71
2022/07/17 09:45:53;;;;;;;3.22;1.67;;;;;;;;;;5087407;27;20382;-71
2022/07/17 09:48:22;;;;;;;3.53;1.73;;;;;;;;;;5074373;28;20507;-71
2022/07/17 09:50:51;;;;;;;2.85;1.70;;;;;;;;;;5070698;28;20024;-71
2022/07/17 09:53:20;;;;;;;2.33;1.67;;;;;;;;;;5069618;28;20028;-70
2022/07/17 09:55:50;;;;;;;3.10;1.73;;;;;;;;;;5067532;28;20047;-71
2022/07/17 09:58:20;;;;;;;2.40;1.60;;;;;;;;;;5074218;28;20028;-71
2022/07/17 10:00:57;;;;;;;2.60;1.60;;;;;;;;;;5052652;28;20385;-70
2022/07/17 10:03:26;;;;;;;2.63;1.48;;;;;;;;;;5050870;28;20021;-70
2022/07/17 10:05:55;;;;;;;3.22;1.48;;;;;;;;;;5050255;28;20029;-71
2022/07/17 10:08:25;;;;;;;2.63;1.48;;;;;;;;;;5050389;28;20021;-71
2022/07/17 10:11:02;;;;;;;2.50;1.80;;;;;;;;;;5066618;28;20441;-71
2022/07/17 10:13:31;;;;;;;2.50;1.70;;;;;;;;;;5068381;28;20035;-71
2022/07/17 10:16:00;;;;;;;1.63;1.30;;;;;;;;;;5067664;28;20025;-71
2022/07/17 10:18:36;;;;;;;3.33;1.38;;;;;;;;;;5065861;28;20051;-71
2022/07/17 10:21:15;;;;;;;1.75;1.30;;;;;;;;;;5106554;27;20430;-70
2022/07/17 10:23:47;;;;;;;2.97;1.70;;;;;;;;;;5105932;28;20024;-71
2022/07/17 10:26:51;;;;;;;1.40;1.30;;;;;;;;;;5106791;27;20388;-71
2022/07/17 10:29:33;;;;;;;2.20;1.45;;;;;;;;;;5106785;27;20396;-70
2022/07/17 10:32:17;;;;;;;2.65;1.65;;;;;;;;;;5066493;28;20423;-71
2022/07/17 10:34:54;;;;;;;5.47;1.60;;;;;;;;;;5107039;27;20384;-71
2022/07/17 10:37:29;;;;;;;2.05;1.30;;;;;;;;;;5089257;28;20482;-70
2022/07/17 10:40:18;;;;;;;1.90;1.30;;;;;;;;;;5110667;27;20769;-71
2022/07/17 10:42:58;;;;;;;1.88;1.30;;;;;;;;;;5090883;28;20035;-71
2022/07/17 10:45:32;;;;;;;2.30;1.17;;;;;;;;;;5090629;28;20033;-71
2022/07/17 10:48:09;;;;;;;1.27;0.82;;;;;;;;;;5066471;28;20395;-71
2022/07/17 10:50:52;;;;;;;1.45;1.20;;;;;;;;;;5106081;27;20920;-71
2022/07/17 10:53:31;;;;;;;1.10;1.00;;;;;;;;;;5066744;28;20417;-71
2022/07/17 10:56:05;;;;;;;2.13;1.00;;;;;;;;;;5062206;28;20036;-71
2022/07/17 10:58:34;;;;;;;1.55;1.00;;;;;;;;;;5051078;28;20040;-71
2022/07/17 11:01:13;;;;;;;3.72;1.00;;;;;;;;;;5069231;28;20383;-71
2022/07/17 11:03:49;;;;;;;1.92;1.20;;;;;;;;;;5051950;28;20036;-71
2022/07/17 11:06:29;;;;;;;1.45;1.15;;;;;;;;;;5106635;27;20396;-71
2022/07/17 11:09:10;;;;;;;1.52;1.02;;;;;;;;;;5107285;27;20915;-71
2022/07/17 11:11:51;;;;;;;1.30;1.20;;;;;;;;;;5107155;27;20396;-71
2022/07/17 11:14:31;;;;;;;1.38;1.05;;;;;;;;;;5066725;28;20395;-70
2022/07/17 11:17:08;;;;;;;4.15;1.13;;;;;;;;;;5066304;28;20828;-71
2022/07/17 11:19:48;;;;;;;5.03;1.20;;;;;;;;;;5066793;28;20427;-70
2022/07/17 11:22:17;;;;;;;1.27;1.17;;;;;;;;;;5049033;28;20037;-70
2022/07/17 11:24:54;;;;;;;6.22;1.30;;;;;;;;;;5090756;27;20390;-71
2022/07/17 11:27:27;;;;;;;1.63;1.13;;;;;;;;;;5090680;28;20020;-71
2022/07/17 11:30:11;;;;;;;1.10;1.00;;;;;;;;;;5106948;27;20388;-71
2022/07/17 11:32:40;;;;;;;1.60;1.10;;;;;;;;;;5106849;28;20023;-70
2022/07/17 11:35:19;;;;;;;1.30;1.20;;;;;;;;;;5106307;28;20021;-71
2022/07/17 11:37:58;;;;;;;2.78;1.10;;;;;;;;;;5106802;27;20412;-71
2022/07/17 11:40:45;;;;;;;3.33;1.20;;;;;;;;;;5109315;27;20388;-71
2022/07/17 11:43:23;;;;;;;3.35;1.30;;;;;;;;;;5110458;27;20384;-71
2022/07/17 11:45:51;;;;;;;3.58;1.30;;;;;;;;;;5108357;28;20035;-71
2022/07/17 11:48:20;;;;;;;1.38;1.23;;;;;;;;;;5107413;28;20038;-71
2022/07/17 11:50:56;;;;;;;2.33;1.40;;;;;;;;;;5106324;28;20391;-71
2022/07/17 11:53:38;;;;;;;2.50;1.40;;;;;;;;;;5066536;28;20577;-71
2022/07/17 11:56:21;;;;;;;1.73;1.20;;;;;;;;;;5108756;27;20377;-71
2022/07/17 11:58:50;;;;;;;3.28;1.33;;;;;;;;;;5107988;28;20095;-71
2022/07/17 12:01:19;;;;;;;1.75;1.30;;;;;;;;;;5110510;28;20058;-70
2022/07/17 12:04:14;;;;;;;4.95;1.40;;;;;;;;;;5106135;28;20024;-71
2022/07/17 12:07:02;;;;;;;1.92;1.20;;;;;;;;;;5089793;27;20397;-70
2022/07/17 12:09:39;;;;;;;2.88;1.02;;;;;;;;;;5106398;27;20389;-71
2022/07/17 12:12:18;;;;;;;1.23;1.13;;;;;;;;;;5096346;28;20050;-70
2022/07/17 12:14:50;;;;;;;1.60;1.30;;;;;;;;;;5090263;28;20023;-71
2022/07/17 12:17:38;;;;;;;2.05;1.30;;;;;;;;;;5106487;27;20381;-71
2022/07/17 12:20:16;;;;;;;5.65;1.58;;;;;;;;;;5107075;27;20400;-71
2022/07/17 12:22:45;;;;;;;2.20;1.00;;;;;;;;;;5108492;28;20031;-71
2022/07/17 12:25:24;;;;;;;3.40;1.48;;;;;;;;;;5110133;27;20962;-70
2022/07/17 12:27:53;;;;;;;3.15;1.40;;;;;;;;;;5106948;28;20024;-71
2022/07/17 12:30:22;;;;;;;3.55;1.20;;;;;;;;;;5106350;28;20020;-71
2022/07/17 12:32:51;;;;;;;2.05;1.02;;;;;;;;;;5105946;28;20028;-71
2022/07/17 12:35:20;;;;;;;3.42;1.65;;;;;;;;;;5107599;28;20046;-70
2022/07/17 12:37:48;;;;;;;2.28;1.40;;;;;;;;;;5107262;28;20036;-71
2022/07/17 12:40:17;;;;;;;3.45;1.40;;;;;;;;;;5109142;28;20020;-70
2022/07/17 12:42:46;;;;;;;2.25;1.40;;;;;;;;;;5106287;28;20030;-71
2022/07/17 12:45:22;;;;;;;2.25;1.38;;;;;;;;;;5104415;27;20133;-71
2022/07/17 12:47:51;;;;;;;1.13;1.13;;;;;;;;;;5106050;28;20023;-71
2022/07/17 12:50:30;;;;;;;2.05;1.10;;;;;;;;;;5066647;28;20429;-70
2022/07/17 12:52:59;;;;;;;3.95;1.40;;;;;;;;;;5062033;28;20051;-71
2022/07/17 12:55:27;;;;;;;2.25;1.45;;;;;;;;;;5052526;28;20033;-71
2022/07/17 12:57:56;;;;;;;1.65;1.42;;;;;;;;;;5053383;28;20033;-71
2022/07/17 13:00:25;;;;;;;1.27;1.13;;;;;;;;;;5050421;28;20043;-71
2022/07/17 13:02:54;;;;;;;3.28;1.25;;;;;;;;;;5050034;28;20040;-70
2022/07/17 13:05:22;;;;;;;3.38;1.33;;;;;;;;;;5049881;28;20408;-71
2022/07/17 13:07:51;;;;;;;1.35;1.13;;;;;;;;;;5046339;28;20021;-71
2022/07/17 13:10:20;;;;;;;1.98;1.30;;;;;;;;;;5060650;28;20047;-71
2022/07/17 13:12:49;;;;;;;1.48;1.33;;;;;;;;;;5050461;28;20512;-71
2022/07/17 13:15:17;;;;;;;3.15;1.13;;;;;;;;;;5050172;28;20044;-71
2022/07/17 13:17:46;;;;;;;1.77;1.45;;;;;;;;;;5049657;28;20037;-71
2022/07/17 13:20:23;;;;;;;1.58;1.48;;;;;;;;;;5086214;28;20129;-70
2022/07/17 13:22:52;;;;;;;6.85;1.65;;;;;;;;;;5086643;28;20481;-70
2022/07/17 13:25:20;;;;;;;2.13;1.48;;;;;;;;;;5085276;28;20024;-70
2022/07/17 13:27:49;;;;;;;5.32;1.40;;;;;;;;;;5087861;28;20452;-71
2022/07/17 13:30:26;;;;;;;2.05;1.40;;;;;;;;;;5085879;27;20683;-71
2022/07/17 13:32:55;;;;;;;1.60;1.30;;;;;;;;;;5086168;28;20021;-71
2022/07/17 13:35:24;;;;;;;1.40;1.30;;;;;;;;;;5086244;28;20062;-71
2022/07/17 13:37:52;;;;;;;2.22;1.30;;;;;;;;;;5086409;28;20035;-71
2022/07/17 13:40:24;;;;;;;1.85;1.30;;;;;;;;;;5085275;28;20035;-70
2022/07/17 13:43:01;;;;;;;2.38;1.50;;;;;;;;;;5051793;28;20438;-71
2022/07/17 13:45:31;;;;;;;3.45;1.65;;;;;;;;;;5049917;28;20030;-71
2022/07/17 13:48:08;;;;;;;3.70;1.50;;;;;;;;;;5126971;27;20391;-70
2022/07/17 13:50:46;;;;;;;1.60;1.40;;;;;;;;;;5066349;28;20476;-71
2022/07/17 13:53:16;;;;;;;2.45;1.55;;;;;;;;;;5061521;28;20025;-71
2022/07/17 13:55:56;;;;;;;1.77;1.38;;;;;;;;;;5066231;28;20395;-71
2022/07/17 13:58:34;;;;;;;4.07;1.50;;;;;;;;;;5088441;28;20331;-70
2022/07/17 14:01:15;;;;;;;1.65;1.55;;;;;;;;;;5109596;27;20811;-71
2022/07/17 14:03:44;;;;;;;3.78;1.40;;;;;;;;;;5091372;28;20039;-71
2022/07/17 14:06:13;;;;;;;2.13;1.45;;;;;;;;;;5090570;28;20519;-70
2022/07/17 14:08:50;;;;;;;1.77;1.25;;;;;;;;;;5106362;27;20400;-70
2022/07/17 14:11:19;;;;;;;1.77;1.38;;;;;;;;;;5106824;28;20024;-70
2022/07/17 14:13:56;;;;;;;4.40;1.40;;;;;;;;;;5106339;27;20129;-71
2022/07/17 14:16:24;;;;;;;5.38;1.65;;;;;;;;;;5109677;28;20035;-71
2022/07/17 14:19:01;;;;;;;2.28;1.50;;;;;;;;;;5071878;27;20130;-70
2022/07/17 14:21:34;;;;;;;2.90;1.65;;;;;;;;;;5070301;28;20404;-71
2022/07/17 14:24:13;;;;;;;1.58;1.48;;;;;;;;;;5066266;28;20390;-70
2022/07/17 14:26:47;;;;;;;2.35;1.60;;;;;;;;;;5059716;28;20516;-71
2022/07/17 14:29:15;;;;;;;1.50;1.40;;;;;;;;;;5049164;28;20021;-70
2022/07/17 14:31:44;;;;;;;4.18;1.42;;;;;;;;;;5048094;28;20038;-71
2022/07/17 14:34:13;;;;;;;2.00;1.75;;;;;;;;;;5052895;28;20051;-70
2022/07/17 14:36:42;;;;;;;1.70;1.60;;;;;;;;;;5050672;28;20043;-70
2022/07/17 14:39:11;;;;;;;2.30;1.50;;;;;;;;;;5050226;28;20025;-71
2022/07/17 14:41:49;;;;;;;1.70;1.60;;;;;;;;;;5126891;27;20411;-71
2022/07/17 14:44:17;;;;;;;2.20;1.80;;;;;;;;;;5122340;28;20028;-71
2022/07/17 14:46:54;;;;;;;2.08;1.75;;;;;;;;;;5086440;27;20617;-71
2022/07/17 14:49:23;;;;;;;2.93;1.47;;;;;;;;;;5069400;28;20039;-71
2022/07/17 14:51:52;;;;;;;1.48;1.38;;;;;;;;;;5069492;28;20515;-70
2022/07/17 14:54:20;;;;;;;2.47;1.77;;;;;;;;;;5068987;28;20021;-71
2022/07/17 14:56:49;;;;;;;4.22;1.90;;;;;;;;;;5068639;28;20036;-71
2022/07/17 14:59:18;;;;;;;1.65;1.35;;;;;;;;;;5068289;28;20024;-71
2022/07/17 15:01:57;;;;;;;1.90;1.58;;;;;;;;;;5106617;27;20915;-71
2022/07/17 15:04:25;;;;;;;3.80;1.80;;;;;;;;;;5109764;28;20034;-70
2022/07/17 15:06:54;;;;;;;3.42;1.70;;;;;;;;;;5106877;28;20057;-71
2022/07/17 15:09:23;;;;;;;2.22;1.65;;;;;;;;;;5106322;28;20034;-71
2022/07/17 15:11:52;;;;;;;3.67;1.95;;;;;;;;;;5107392;28;20020;-70
2022/07/17 15:14:20;;;;;;;3.58;1.70;;;;;;;;;;5106181;28;20030;-71
2022/07/17 15:16:49;;;;;;;2.75;1.58;;;;;;;;;;5106875;28;20027;-70
2022/07/17 15:19:26;;;;;;;1.77;1.65;;;;;;;;;;5069195;28;20208;-70